Auroraville, Wisconsin
Current Conditions -  °F | °C
As of 5:56 PM on Wednesday 22 Oct 2014 (Local Time) from KY50 Reporting Station
Overcast Overcast  
Wind Chill: 53°   Ceiling: 100
Heat Index: 53°   Visibility: 10mi
Dew Point: 37°   Wind: 6mph
Humidity: 55%   Direction: 110°ESE
Pressure: 30.23"   Gusts: NA
Location:  43.9938°N, 88.9686°W
Report Text: KY50 222256Z AUTO 11005KT 10SM OVC001 12/03 A3023 RMK AO2 TSNO T01160027 SLP243
Loading
Personal Weather Stations






























Interactive Weather Map
Tropical Storm Tracking
New forecast layout! Learn more

10-Day Weather Forecast

Advertisements
Track Severe Weather on mobile